createdAt,value
2018-01-11T00:01:18.244Z,6.37
2018-01-11T00:03:46.596Z,6.35
2018-01-11T00:06:14.864Z,6.40
2018-01-11T00:08:43.176Z,6.55
2018-01-11T00:11:11.472Z,7.77
2018-01-11T00:13:39.021Z,6.20
2018-01-11T00:16:07.312Z,6.68
2018-01-11T00:18:35.628Z,6.23
2018-01-11T00:21:03.923Z,6.45
2018-01-11T00:23:32.248Z,6.95
2018-01-11T00:26:00.554Z,7.52
2018-01-11T00:28:28.873Z,7.90
2018-01-11T00:30:57.156Z,7.93
2018-01-11T00:33:25.468Z,6.60
2018-01-11T00:35:53.759Z,6.52
2018-01-11T00:38:22.076Z,6.73
2018-01-11T00:40:49.596Z,7.10
2018-01-11T00:43:17.908Z,6.08
2018-01-11T00:45:46.196Z,6.93
2018-01-11T00:48:14.504Z,6.13
2018-01-11T00:50:42.792Z,7.08
2018-01-11T00:53:11.109Z,5.93
2018-01-11T00:55:39.394Z,5.98
2018-01-11T00:58:07.709Z,6.25
2018-01-11T01:00:36.002Z,7.88
2018-01-11T01:03:04.292Z,7.65
2018-01-11T01:05:32.609Z,6.25
2018-01-11T01:08:00.905Z,6.72
2018-01-11T01:10:29.216Z,6.63
2018-01-11T01:12:56.751Z,6.72
2018-01-11T01:15:25.063Z,6.22
2018-01-11T01:17:53.348Z,6.88
2018-01-11T01:20:21.660Z,6.70
2018-01-11T01:22:49.952Z,9.40
2018-01-11T01:25:18.268Z,6.53
2018-01-11T01:27:46.547Z,7.05
2018-01-11T01:30:14.870Z,10.13
2018-01-11T01:32:43.152Z,6.68
2018-01-11T01:35:11.470Z,6.58
2018-01-11T01:37:39.752Z,7.02
2018-01-11T01:40:08.067Z,6.45
2018-01-11T01:42:36.352Z,6.83
2018-01-11T01:45:04.668Z,7.35
2018-01-11T01:47:32.956Z,6.77
2018-01-11T01:50:01.268Z,6.33
2018-01-11T01:52:28.792Z,6.98
2018-01-11T01:54:57.112Z,6.88
2018-01-11T01:57:25.401Z,6.35
2018-01-11T01:59:53.720Z,6.60
2018-01-11T02:02:22.004Z,6.17
2018-01-11T02:04:50.337Z,6.40
2018-01-11T02:07:18.624Z,6.48
2018-01-11T02:09:46.940Z,7.95
2018-01-11T02:12:15.216Z,6.48
2018-01-11T02:14:43.537Z,5.78
2018-01-11T02:17:11.832Z,9.30
2018-01-11T02:19:40.156Z,14.75
2018-01-11T02:22:08.453Z,48.88
2018-01-11T02:24:36.777Z,12.33
2018-01-11T02:27:05.077Z,34.40
2018-01-11T02:29:33.396Z,35.55
2018-01-11T02:32:01.686Z,11.27
2018-01-11T02:34:30.009Z,30.57
2018-01-11T02:36:58.316Z,24.33
2018-01-11T02:39:26.631Z,8.78
2018-01-11T02:41:54.924Z,7.95
2018-01-11T02:44:23.248Z,7.35
2018-01-11T02:46:51.536Z,6.68
2018-01-11T02:49:19.823Z,6.27
2018-01-11T02:51:48.144Z,6.48
2018-01-11T02:54:16.428Z,6.32
2018-01-11T02:56:44.746Z,10.73
2018-01-11T02:59:12.284Z,10.03
2018-01-11T03:01:39.827Z,6.77
2018-01-11T03:04:08.100Z,6.13
2018-01-11T03:06:36.407Z,5.70
2018-01-11T03:09:04.683Z,6.70
2018-01-11T03:11:32.987Z,5.12
2018-01-11T03:14:01.272Z,5.73
2018-01-11T03:16:29.583Z,5.72
2018-01-11T03:18:57.881Z,5.35
2018-01-11T03:21:26.200Z,5.62
2018-01-11T03:23:54.488Z,5.20
2018-01-11T03:26:22.810Z,5.70
2018-01-11T03:28:52.084Z,5.93
2018-01-11T03:31:20.401Z,6.05
2018-01-11T03:33:48.683Z,5.17
2018-01-11T03:36:16.994Z,5.62
2018-01-11T03:38:45.280Z,5.92
2018-01-11T03:41:13.584Z,5.07
2018-01-11T03:43:41.875Z,5.52
2018-01-11T03:46:10.196Z,5.20
2018-01-11T03:48:38.475Z,5.00
2018-01-11T03:51:06.784Z,5.62
2018-01-11T03:53:35.067Z,6.00
2018-01-11T03:56:03.380Z,4.85
2018-01-11T03:58:31.664Z,5.35
2018-01-11T04:00:59.977Z,5.40
2018-01-11T04:03:28.265Z,5.42
2018-01-11T04:05:55.816Z,5.43
2018-01-11T04:08:24.105Z,5.78
2018-01-11T04:10:52.394Z,5.53
2018-01-11T04:13:20.717Z,5.73
2018-01-11T04:15:49.011Z,5.03
2018-01-11T04:18:17.320Z,5.43
2018-01-11T04:20:45.608Z,5.53
2018-01-11T04:23:13.155Z,6.25
2018-01-11T04:25:41.435Z,4.92
2018-01-11T04:28:09.748Z,5.45
2018-01-11T04:30:38.028Z,5.60
2018-01-11T04:33:06.335Z,5.25
2018-01-11T04:35:34.628Z,5.37
2018-01-11T04:38:02.942Z,5.57
2018-01-11T04:40:31.232Z,4.72
2018-01-11T04:42:59.540Z,5.68
2018-01-11T04:45:27.828Z,6.30
2018-01-11T04:47:56.144Z,5.08
2018-01-11T04:50:24.428Z,5.88
2018-01-11T04:52:51.975Z,5.93
2018-01-11T04:55:20.261Z,5.70
2018-01-11T04:57:48.896Z,6.25
2018-01-11T05:00:17.175Z,5.90
2018-01-11T05:02:45.487Z,7.08
2018-01-11T05:05:13.768Z,6.27
2018-01-11T05:07:42.081Z,6.12
2018-01-11T05:10:10.360Z,6.85
2018-01-11T05:12:38.671Z,6.13
2018-01-11T05:15:06.952Z,6.97
2018-01-11T05:17:35.272Z,6.70
2018-01-11T05:22:25.956Z,6.15
2018-01-11T05:24:54.264Z,5.90
2018-01-11T05:27:22.600Z,6.15
2018-01-11T05:29:50.909Z,5.85
2018-01-11T05:32:19.250Z,6.15
2018-01-11T05:34:47.562Z,6.22
2018-01-11T05:37:15.896Z,5.88
2018-01-11T05:39:44.206Z,6.80
2018-01-11T05:42:12.548Z,6.62
2018-01-11T05:44:40.858Z,7.50
2018-01-11T05:47:09.197Z,6.43
2018-01-11T05:49:37.542Z,6.97
2018-01-11T05:52:05.883Z,6.55
2018-01-11T05:54:34.210Z,5.93
2018-01-11T05:57:02.548Z,6.18
2018-01-11T05:59:30.864Z,6.40
2018-01-11T06:01:59.207Z,6.07
2018-01-11T06:04:27.512Z,6.40
2018-01-11T06:06:55.828Z,7.98
2018-01-11T06:09:24.168Z,7.15
2018-01-11T06:11:52.487Z,8.42
2018-01-11T06:14:20.827Z,8.10
2018-01-11T06:16:49.137Z,7.68
2018-01-11T06:19:17.478Z,7.47
2018-01-11T06:21:45.785Z,8.15
2018-01-11T06:24:14.124Z,8.47
2018-01-11T06:26:42.443Z,9.35
2018-01-11T06:29:10.788Z,8.60
2018-01-11T06:31:39.100Z,8.00
2018-01-11T06:34:07.441Z,7.05
2018-01-11T06:36:35.752Z,7.50
2018-01-11T06:39:04.110Z,9.08
2018-01-11T06:41:32.406Z,7.45
2018-01-11T06:44:00.754Z,8.93
2018-01-11T06:46:29.055Z,8.53
2018-01-11T06:48:57.392Z,8.33
2018-01-11T06:51:25.707Z,8.25
2018-01-11T06:53:54.050Z,8.97
2018-01-11T06:56:22.383Z,9.12
2018-01-11T06:58:50.714Z,8.22
2018-01-11T07:01:19.056Z,8.05
2018-01-11T07:03:47.398Z,8.07
2018-01-11T07:06:15.708Z,8.82
2018-01-11T07:08:44.047Z,10.38
2018-01-11T07:11:12.367Z,10.37
2018-01-11T07:13:40.717Z,9.47
2018-01-11T07:16:09.031Z,11.20
2018-01-11T07:18:37.378Z,10.88
2018-01-11T07:21:05.687Z,8.62
2018-01-11T07:23:34.023Z,9.15
2018-01-11T07:26:02.330Z,8.53
2018-01-11T07:28:30.678Z,8.20
2018-01-11T07:30:58.990Z,9.10
2018-01-11T07:33:27.327Z,10.75
2018-01-11T07:35:55.634Z,8.90
2018-01-11T07:38:23.975Z,8.60
2018-01-11T07:40:52.292Z,9.38
2018-01-11T07:43:20.641Z,10.23
2018-01-11T07:45:48.959Z,10.37
2018-01-11T07:48:17.295Z,9.97
2018-01-11T07:50:45.608Z,10.37
2018-01-11T07:53:13.946Z,14.15
2018-01-11T07:55:42.265Z,14.17
2018-01-11T07:58:10.602Z,21.23
2018-01-11T08:00:38.907Z,19.63
2018-01-11T08:03:07.266Z,19.73
2018-01-11T08:05:35.583Z,18.03
2018-01-11T08:08:03.896Z,14.33
2018-01-11T08:10:32.239Z,16.75
2018-01-11T08:13:00.560Z,14.77
2018-01-11T08:15:28.902Z,13.72
2018-01-11T08:17:57.218Z,13.60
2018-01-11T08:20:25.564Z,12.98
2018-01-11T08:22:53.892Z,12.13
2018-01-11T08:25:22.242Z,13.12
2018-01-11T08:27:50.747Z,15.77
2018-01-11T08:30:19.089Z,20.17
2018-01-11T08:32:47.436Z,20.73
2018-01-11T08:35:15.839Z,13.87
2018-01-11T08:37:44.206Z,13.05
2018-01-11T08:40:12.742Z,14.63
2018-01-11T08:42:41.166Z,15.72
2018-01-11T08:45:09.697Z,15.00
2018-01-11T08:50:10.693Z,28.75
2018-01-11T08:52:38.984Z,30.27
2018-01-11T08:55:07.304Z,26.07
2018-01-11T08:57:35.603Z,25.67
2018-01-11T09:00:03.929Z,22.23
2018-01-11T09:02:32.228Z,24.03
2018-01-11T09:05:00.544Z,18.15
2018-01-11T09:07:28.836Z,14.07
2018-01-11T09:09:57.158Z,14.00
2018-01-11T09:12:25.455Z,15.60
2018-01-11T09:14:53.784Z,14.62
2018-01-11T09:17:22.075Z,14.72
2018-01-11T09:19:50.396Z,28.07
2018-01-11T09:22:18.693Z,25.68
2018-01-11T09:24:46.244Z,27.35
2018-01-11T09:27:14.539Z,22.78
2018-01-11T09:29:42.864Z,22.00
2018-01-11T09:32:11.159Z,19.88
2018-01-11T09:34:39.480Z,17.50
2018-01-11T09:37:07.782Z,32.68
2018-01-11T09:39:36.104Z,21.42
2018-01-11T09:42:04.401Z,29.43
2018-01-11T09:44:32.724Z,24.07
2018-01-11T09:47:01.023Z,22.42
2018-01-11T09:49:29.348Z,15.72
2018-01-11T09:51:57.644Z,16.65
2018-01-11T09:54:25.964Z,14.83
2018-01-11T09:56:54.270Z,14.18
2018-01-11T09:59:22.597Z,18.68
2018-01-11T10:01:50.893Z,15.28
2018-01-11T10:04:19.228Z,14.50
2018-01-11T10:06:47.531Z,14.97
2018-01-11T10:09:15.876Z,12.33
2018-01-11T10:11:44.172Z,11.98
2018-01-11T10:14:12.464Z,11.92
2018-01-11T10:16:40.788Z,11.57
2018-01-11T10:19:09.088Z,11.93
2018-01-11T10:21:37.420Z,11.25
2018-01-11T10:24:05.729Z,11.67
2018-01-11T10:26:34.053Z,14.23
2018-01-11T10:29:02.347Z,15.70
2018-01-11T10:31:30.668Z,13.28
2018-01-11T10:33:58.203Z,12.45
2018-01-11T10:36:26.532Z,12.40
2018-01-11T10:38:54.830Z,10.75
2018-01-11T10:41:23.156Z,11.43
2018-01-11T10:43:51.459Z,10.94
2018-01-11T10:46:19.769Z,9.44
2018-01-11T10:48:48.057Z,9.86
2018-01-11T10:51:16.384Z,9.42
2018-01-11T10:53:44.680Z,8.96
2018-01-11T10:56:13.003Z,10.07
2018-01-11T10:58:41.308Z,8.93
2018-01-11T11:01:15.337Z,12.27
2018-01-11T11:03:43.640Z,14.94
2018-01-11T11:06:11.965Z,13.18
2018-01-11T11:08:40.269Z,14.87
2018-01-11T11:11:08.600Z,19.07
2018-01-11T11:13:36.888Z,17.56
2018-01-11T11:16:05.212Z,9.93
2018-01-11T11:18:33.509Z,9.85
2018-01-11T11:21:01.818Z,6.90
2018-01-11T11:23:30.115Z,6.93
2018-01-11T11:25:58.439Z,6.78
2018-01-11T11:28:26.728Z,5.40
2018-01-11T11:30:55.056Z,6.12
2018-01-11T11:33:22.584Z,5.98
2018-01-11T11:35:50.904Z,6.20
2018-01-11T11:38:19.187Z,5.52
2018-01-11T11:40:47.509Z,6.88
2018-01-11T11:43:15.856Z,6.15
2018-01-11T11:45:44.185Z,6.20
2018-01-11T11:48:12.473Z,6.88
2018-01-11T11:50:40.830Z,6.28
2018-01-11T11:53:09.105Z,6.14
2018-01-11T11:55:37.420Z,5.84
2018-01-11T11:58:05.705Z,6.10
2018-01-11T12:00:34.033Z,5.32
2018-01-11T12:03:02.328Z,5.14
2018-01-11T12:05:30.655Z,5.78
2018-01-11T12:07:58.964Z,5.70
2018-01-11T12:10:27.300Z,5.72
2018-01-11T12:12:55.594Z,6.12
2018-01-11T12:15:23.888Z,6.08
2018-01-11T12:17:52.208Z,5.34
2018-01-11T12:20:20.495Z,4.88
2018-01-11T12:22:48.816Z,5.98
2018-01-11T12:25:17.110Z,5.24
2018-01-11T12:27:45.424Z,5.38
2018-01-11T12:30:13.716Z,5.60
2018-01-11T12:32:42.036Z,5.88
2018-01-11T12:35:10.333Z,5.62
2018-01-11T12:37:38.651Z,5.64
2018-01-11T12:40:06.936Z,5.08
2018-01-11T12:42:35.262Z,5.40
2018-01-11T12:45:03.566Z,5.18
2018-01-11T12:47:31.908Z,6.94
2018-01-11T12:50:00.204Z,5.74
2018-01-11T12:52:27.751Z,5.76
2018-01-11T12:54:56.038Z,5.42
2018-01-11T12:57:24.351Z,5.88
2018-01-11T12:59:52.643Z,5.68
2018-01-11T13:02:20.967Z,5.64
2018-01-11T13:04:49.268Z,5.70
2018-01-11T13:07:17.596Z,6.08
2018-01-11T13:09:45.893Z,5.42
2018-01-11T13:12:14.213Z,5.62
2018-01-11T13:14:42.503Z,5.96
2018-01-11T13:17:10.820Z,5.96
2018-01-11T13:19:39.124Z,5.52
2018-01-11T13:22:07.440Z,5.58
2018-01-11T13:24:35.728Z,5.46
2018-01-11T13:27:04.035Z,4.62
2018-01-11T13:29:32.325Z,4.34
2018-01-11T13:32:00.648Z,4.82
2018-01-11T13:34:28.931Z,4.96
2018-01-11T13:36:57.252Z,5.00
2018-01-11T13:39:25.549Z,5.40
2018-01-11T13:41:53.872Z,5.02
2018-01-11T13:44:22.160Z,4.58
2018-01-11T13:46:50.473Z,4.60
2018-01-11T13:49:18.764Z,4.94
2018-01-11T13:51:47.093Z,5.53
2018-01-11T13:54:15.388Z,4.60
2018-01-11T13:56:43.716Z,4.98
2018-01-11T13:59:12.012Z,4.82
2018-01-11T14:01:40.331Z,5.56
2018-01-11T14:04:08.615Z,5.22
2018-01-11T14:06:36.936Z,6.17
2018-01-11T14:09:05.235Z,5.75
2018-01-11T14:11:33.568Z,6.26
2018-01-11T14:14:01.126Z,5.96
2018-01-11T14:16:29.433Z,6.10
2018-01-11T14:18:57.760Z,13.94
2018-01-11T14:21:26.060Z,7.64
2018-01-11T14:23:54.383Z,8.58
2018-01-11T14:26:22.676Z,7.57
2018-01-11T14:28:50.996Z,8.10
2018-01-11T14:31:19.288Z,7.52
2018-01-11T14:33:47.604Z,7.28
2018-01-11T14:36:15.910Z,12.13
2018-01-11T14:38:44.235Z,11.85
2018-01-11T14:41:12.527Z,6.62
2018-01-11T14:43:40.844Z,5.68
2018-01-11T14:46:09.147Z,5.52
2018-01-11T14:48:37.476Z,5.46
2018-01-11T14:51:05.776Z,7.98
2018-01-11T14:53:34.093Z,4.18
2018-01-11T14:56:02.392Z,5.46
2018-01-11T14:58:30.716Z,6.60
2018-01-11T15:00:59.012Z,5.00
2018-01-11T15:03:27.324Z,7.16
2018-01-11T15:05:55.617Z,6.08
2018-01-11T15:08:23.935Z,8.02
2018-01-11T15:10:52.234Z,8.97
2018-01-11T15:13:20.565Z,10.33
2018-01-11T15:15:48.873Z,8.28
2018-01-11T15:18:17.192Z,8.03
2018-01-11T15:20:45.484Z,10.43
2018-01-11T15:23:13.804Z,10.80
2018-01-11T15:25:42.093Z,8.18
2018-01-11T15:28:10.417Z,6.90
2018-01-11T15:30:37.944Z,5.60
2018-01-11T15:33:06.264Z,6.48
2018-01-11T15:35:34.560Z,8.45
2018-01-11T15:38:02.888Z,11.63
2018-01-11T15:40:31.183Z,8.70
2018-01-11T15:42:59.545Z,10.23
2018-01-11T15:45:27.825Z,15.83
2018-01-11T15:47:56.159Z,16.62
2018-01-11T15:50:24.455Z,19.80
2018-01-11T15:52:52.781Z,10.33
2018-01-11T15:55:20.320Z,10.93
2018-01-11T15:57:48.650Z,10.17
2018-01-11T16:00:16.957Z,10.00
2018-01-11T16:02:45.287Z,7.78
2018-01-11T16:05:13.580Z,7.65
2018-01-11T16:07:41.936Z,8.22
2018-01-11T16:10:10.243Z,8.13
2018-01-11T16:12:38.542Z,8.92
2018-01-11T16:15:06.864Z,9.58
2018-01-11T16:17:34.426Z,9.43
2018-01-11T16:20:02.734Z,9.30
2018-01-11T16:22:31.033Z,14.72
2018-01-11T16:24:58.609Z,11.78
2018-01-11T16:27:26.907Z,11.80
2018-01-11T16:29:55.237Z,11.38
2018-01-11T16:32:23.541Z,12.02
2018-01-11T16:34:51.873Z,13.70
2018-01-11T16:37:19.400Z,14.75
2018-01-11T16:39:47.724Z,12.05
2018-01-11T16:42:16.024Z,11.50
2018-01-11T16:44:44.345Z,10.97
2018-01-11T16:47:12.644Z,9.67
2018-01-11T16:49:40.964Z,9.60
2018-01-11T16:52:09.265Z,11.00
2018-01-11T16:54:37.600Z,9.22
2018-01-11T16:57:05.895Z,9.98
2018-01-11T16:59:34.216Z,10.52
2018-01-11T17:02:02.515Z,11.15
2018-01-11T17:04:30.837Z,9.33
2018-01-11T17:06:58.376Z,10.55
2018-01-11T17:09:26.705Z,9.43
2018-01-11T17:11:55.005Z,8.15
2018-01-11T17:14:23.328Z,9.18
2018-01-11T17:16:51.631Z,8.75
2018-01-11T17:19:19.953Z,7.60
2018-01-11T17:21:48.252Z,8.15
2018-01-11T17:24:16.568Z,8.13
2018-01-11T17:26:44.868Z,9.43
2018-01-11T17:29:13.188Z,9.58
2018-01-11T17:31:41.476Z,9.47
2018-01-11T17:34:09.804Z,11.72
2018-01-11T17:36:38.114Z,11.57
2018-01-11T17:39:06.447Z,12.50
2018-01-11T17:41:34.743Z,9.70
2018-01-11T17:44:02.306Z,10.23
2018-01-11T17:46:30.599Z,8.42
2018-01-11T17:48:58.924Z,9.07
2018-01-11T17:51:27.231Z,8.23
2018-01-11T17:53:55.560Z,8.82
2018-01-11T17:56:23.864Z,10.47
2018-01-11T17:58:52.193Z,9.67
2018-01-11T18:01:20.496Z,9.45
2018-01-11T18:03:48.828Z,12.23
2018-01-11T18:06:17.127Z,10.35
2018-01-11T18:08:45.432Z,12.28
2018-01-11T18:11:13.759Z,10.32
2018-01-11T18:13:42.060Z,10.28
2018-01-11T18:16:10.384Z,27.45
2018-01-11T18:18:38.684Z,29.53
2018-01-11T18:21:07.016Z,32.80
2018-01-11T18:23:35.316Z,38.05
2018-01-11T18:26:03.640Z,30.02
2018-01-11T18:28:31.944Z,16.42
2018-01-11T18:31:00.281Z,15.42
2018-01-11T18:33:27.823Z,12.22
2018-01-11T18:35:56.153Z,10.93
2018-01-11T18:38:24.463Z,11.82
2018-01-11T18:40:52.020Z,12.02
2018-01-11T18:43:20.324Z,11.78
2018-01-11T18:45:48.647Z,12.02
2018-01-11T18:48:16.949Z,15.90
2018-01-11T18:50:45.272Z,15.32
2018-01-11T18:53:13.563Z,12.85
2018-01-11T18:55:41.888Z,13.13
2018-01-11T18:58:10.180Z,14.07
2018-01-11T19:00:38.532Z,13.10
2018-01-11T19:03:06.831Z,14.13
2018-01-11T19:05:35.161Z,13.87
2018-01-11T19:08:03.465Z,15.28
2018-01-11T19:10:31.797Z,14.03
2018-01-11T19:13:00.089Z,14.88
2018-01-11T19:15:28.416Z,15.77
2018-01-11T19:17:56.713Z,14.13
2018-01-11T19:20:25.040Z,14.08
2018-01-11T19:22:53.332Z,13.32
2018-01-11T19:25:21.657Z,14.38
2018-01-11T19:27:49.957Z,16.02
2018-01-11T19:30:18.301Z,13.12
2018-01-11T19:32:46.599Z,15.23
2018-01-11T19:35:14.934Z,17.72
2018-01-11T19:37:43.232Z,17.97
2018-01-11T19:40:11.562Z,16.45
2018-01-11T19:42:39.862Z,17.02
2018-01-11T19:45:08.185Z,15.48
2018-01-11T19:47:36.487Z,15.42
2018-01-11T19:50:04.816Z,17.23
2018-01-11T19:52:32.355Z,16.50
2018-01-11T19:55:00.680Z,15.32
2018-01-11T19:57:28.980Z,15.77
2018-01-11T19:59:57.310Z,16.28
2018-01-11T20:02:25.619Z,16.82
2018-01-11T20:04:53.962Z,14.67
2018-01-11T20:07:22.265Z,15.67
2018-01-11T20:09:50.555Z,16.58
2018-01-11T20:12:18.879Z,15.08
2018-01-11T20:14:47.180Z,14.95
2018-01-11T20:17:15.512Z,15.72
2018-01-11T20:19:43.813Z,13.83
2018-01-11T20:22:12.132Z,14.08
2018-01-11T20:24:40.427Z,15.63
2018-01-11T20:27:08.749Z,15.02
2018-01-11T20:29:37.041Z,14.43
2018-01-11T20:32:05.372Z,14.58
2018-01-11T20:34:33.667Z,15.73
2018-01-11T20:37:02.005Z,14.38
2018-01-11T20:39:30.303Z,15.48
2018-01-11T20:41:58.632Z,17.03
2018-01-11T20:44:26.933Z,15.62
2018-01-11T20:46:55.260Z,16.82
2018-01-11T20:49:23.565Z,17.37
2018-01-11T20:51:51.890Z,19.75
2018-01-11T20:54:19.429Z,17.38
2018-01-11T20:56:47.796Z,18.75
2018-01-11T20:59:16.081Z,19.92
2018-01-11T21:01:44.420Z,20.02
2018-01-11T21:04:11.956Z,19.72
2018-01-11T21:06:40.289Z,19.33
2018-01-11T21:09:08.584Z,21.20
2018-01-11T21:11:36.912Z,22.00
2018-01-11T21:14:05.216Z,20.50
2018-01-11T21:16:33.544Z,24.22
2018-01-11T21:19:01.835Z,24.68
2018-01-11T21:21:30.160Z,27.65
2018-01-11T21:23:58.449Z,25.35
2018-01-11T21:26:26.776Z,28.87
2018-01-11T21:28:55.072Z,18.30
2018-01-11T21:31:22.634Z,19.20
2018-01-11T21:33:50.932Z,20.25
2018-01-11T21:36:19.265Z,21.10
2018-01-11T21:38:47.559Z,20.35
2018-01-11T21:41:15.884Z,15.93
2018-01-11T21:43:44.172Z,19.15
2018-01-11T21:46:12.500Z,23.37
2018-01-11T21:48:40.792Z,23.47
2018-01-11T21:51:09.125Z,22.92
2018-01-11T21:53:37.420Z,24.88
2018-01-11T21:56:05.744Z,22.40
2018-01-11T21:58:34.044Z,23.42
2018-01-11T22:01:02.367Z,23.87
2018-01-11T22:03:30.662Z,21.95
2018-01-11T22:05:58.951Z,21.22
2018-01-11T22:08:27.273Z,24.22
2018-01-11T22:10:55.569Z,23.45
2018-01-11T22:13:23.893Z,23.20
2018-01-11T22:15:51.423Z,22.98
2018-01-11T22:18:19.760Z,25.22
2018-01-11T22:20:48.056Z,37.37
2018-01-11T22:23:16.379Z,25.75
2018-01-11T22:25:44.675Z,23.67
2018-01-11T22:28:13.001Z,29.58
2018-01-11T22:30:41.292Z,21.28
2018-01-11T22:33:09.616Z,24.95
2018-01-11T22:35:37.912Z,26.92
2018-01-11T22:38:06.240Z,24.17
2018-01-11T22:40:34.531Z,23.67
2018-01-11T22:43:02.853Z,21.42
2018-01-11T22:45:31.153Z,20.97
2018-01-11T22:47:59.480Z,18.40
2018-01-11T22:50:27.779Z,21.40
2018-01-11T22:52:56.105Z,18.73
2018-01-11T22:55:24.412Z,19.42
2018-01-11T22:57:52.740Z,18.38
2018-01-11T23:00:23.764Z,21.23
2018-01-11T23:02:52.084Z,21.63
2018-01-11T23:05:20.384Z,21.27
2018-01-11T23:07:48.704Z,19.43
2018-01-11T23:10:16.991Z,20.25
2018-01-11T23:12:45.313Z,20.58
2018-01-11T23:15:13.609Z,20.92
2018-01-11T23:17:41.923Z,19.45
2018-01-11T23:20:10.284Z,20.57
2018-01-11T23:22:38.609Z,22.67
2018-01-11T23:25:06.903Z,21.03
2018-01-11T23:27:35.232Z,22.13
2018-01-11T23:30:03.527Z,22.27
2018-01-11T23:32:31.856Z,21.60
2018-01-11T23:35:00.147Z,22.28
2018-01-11T23:37:28.471Z,20.22
2018-01-11T23:39:56.764Z,19.70
2018-01-11T23:42:25.093Z,21.98
2018-01-11T23:44:53.394Z,21.90
2018-01-11T23:47:21.711Z,21.48
2018-01-11T23:49:50.008Z,22.18
2018-01-11T23:52:18.332Z,21.30
2018-01-11T23:54:46.624Z,20.17
2018-01-11T23:57:14.948Z,20.12
2018-01-11T23:59:43.244Z,20.02
